Time;durP1;ratioP1;P1;durP2;ratioP2;P2;SDS_P1;SDS_P2;PMS_P1;PMS_P2;Temp;Humidity;BMP_temperature;BMP_pressure;BME280_temperature;BME280_humidity;BME280_pressure;Samples;Min_cycle;Max_cycle;Signal;HPM_P1;HPM_P2
2023/04/13 00:00:29;;;;;;;;;;;9.38;34.17;;;;;;2673184;76;20424;-93
2023/04/13 00:04:01;;;;;;;;;;;9.33;34.43;;;;;;2670915;76;20460;-91
2023/04/13 00:07:27;;;;;;;;;;;9.24;34.62;;;;;;2670848;76;20432;-92
2023/04/13 00:10:56;;;;;;;;;;;9.15;34.89;;;;;;2672119;76;20435;-92
2023/04/13 00:14:32;;;;;;;;;;;8.90;35.59;;;;;;2671402;76;21351;-92
2023/04/13 00:17:57;;;;;;;;;;;8.79;36.13;;;;;;2671425;76;20396;-92
2023/04/13 00:21:26;;;;;;;;;;;8.81;36.64;;;;;;2672648;76;20453;-92
2023/04/13 00:24:54;;;;;;;;;;;8.53;37.14;;;;;;2671512;76;20470;-92
2023/04/13 00:28:23;;;;;;;;;;;8.50;38.30;;;;;;2672545;76;20404;-93
2023/04/13 00:31:51;;;;;;;;;;;8.39;37.45;;;;;;2671758;76;20442;-92
2023/04/13 00:35:23;;;;;;;;;;;8.32;37.77;;;;;;2671253;76;20791;-92
2023/04/13 00:38:49;;;;;;;;;;;8.31;37.85;;;;;;2672359;76;20827;-93
2023/04/13 00:42:17;;;;;;;;;;;8.26;38.00;;;;;;2670951;76;20899;-94
2023/04/13 00:45:45;;;;;;;;;;;8.03;37.26;;;;;;2669488;76;20443;-94
2023/04/13 00:49:13;;;;;;;;;;;8.00;36.98;;;;;;2671123;76;20430;-92
2023/04/13 00:52:41;;;;;;;;;;;7.98;36.95;;;;;;2669488;76;20423;-92
2023/04/13 00:56:10;;;;;;;;;;;7.89;37.04;;;;;;2669089;76;20875;-94
2023/04/13 00:59:38;;;;;;;;;;;7.98;37.00;;;;;;2671793;76;20432;-92
2023/04/13 01:03:06;;;;;;;;;;;8.04;37.00;;;;;;2672919;76;20451;-91
2023/04/13 01:06:37;;;;;;;;;;;8.03;36.47;;;;;;2670939;76;20445;-93
2023/04/13 01:10:05;;;;;;;;;;;8.12;37.13;;;;;;2672287;76;20447;-93
2023/04/13 01:13:34;;;;;;;;;;;8.16;36.91;;;;;;2671541;76;20317;-92
2023/04/13 01:17:02;;;;;;;;;;;8.24;36.55;;;;;;2672451;76;20444;-93
2023/04/13 01:20:30;;;;;;;;;;;8.29;36.30;;;;;;2672780;76;20317;-92
2023/04/13 01:23:58;;;;;;;;;;;8.34;36.23;;;;;;2671172;76;20860;-93
2023/04/13 01:27:26;;;;;;;;;;;8.37;36.09;;;;;;2672377;76;20910;-91
2023/04/13 01:30:56;;;;;;;;;;;8.32;35.83;;;;;;2672692;76;20950;-92
2023/04/13 01:34:24;;;;;;;;;;;8.28;35.62;;;;;;2672162;76;20421;-93
2023/04/13 01:37:52;;;;;;;;;;;8.36;35.76;;;;;;2671921;76;20739;-92
2023/04/13 01:41:20;;;;;;;;;;;8.27;34.70;;;;;;2671536;76;20316;-92
2023/04/13 01:44:49;;;;;;;;;;;8.34;35.31;;;;;;2671472;76;20401;-92
2023/04/13 01:48:18;;;;;;;;;;;8.37;35.21;;;;;;2672083;76;20622;-92
2023/04/13 01:51:46;;;;;;;;;;;8.35;34.85;;;;;;2671709;76;20735;-90
2023/04/13 01:55:14;;;;;;;;;;;8.29;34.36;;;;;;2671607;76;20422;-93
2023/04/13 01:58:42;;;;;;;;;;;8.27;33.69;;;;;;2670300;76;20412;-92
2023/04/13 02:02:16;;;;;;;;;;;8.23;33.54;;;;;;2672527;76;20434;-92
2023/04/13 02:05:40;;;;;;;;;;;8.24;33.55;;;;;;2671741;76;20432;-94
2023/04/13 02:09:08;;;;;;;;;;;8.28;33.27;;;;;;2671734;76;20464;-92
2023/04/13 02:12:36;;;;;;;;;;;8.27;32.99;;;;;;2671670;76;20451;-91
2023/04/13 02:16:10;;;;;;;;;;;8.20;32.53;;;;;;2672070;76;20439;-92
2023/04/13 02:19:34;;;;;;;;;;;8.09;32.25;;;;;;2671284;76;20429;-92
2023/04/13 02:23:03;;;;;;;;;;;8.01;32.45;;;;;;2670497;76;20416;-92
2023/04/13 02:26:32;;;;;;;;;;;7.94;32.71;;;;;;2670956;76;20441;-92
2023/04/13 02:30:00;;;;;;;;;;;7.89;32.51;;;;;;2671077;76;21568;-91
2023/04/13 02:33:32;;;;;;;;;;;7.81;32.51;;;;;;2672288;76;20460;-91
2023/04/13 02:37:00;;;;;;;;;;;7.81;32.70;;;;;;2671019;76;20483;-90
2023/04/13 02:40:28;;;;;;;;;;;7.76;32.80;;;;;;2671914;76;20440;-90
2023/04/13 02:43:56;;;;;;;;;;;7.72;32.96;;;;;;2669686;76;20429;-91
2023/04/13 02:47:25;;;;;;;;;;;7.70;32.87;;;;;;2669393;76;20455;-91
2023/04/13 02:50:53;;;;;;;;;;;7.69;32.80;;;;;;2670331;76;20337;-90
2023/04/13 02:54:21;;;;;;;;;;;7.63;32.70;;;;;;2669946;76;20458;-91
2023/04/13 02:57:49;;;;;;;;;;;7.60;32.66;;;;;;2671123;76;20323;-91
2023/04/13 03:01:17;;;;;;;;;;;7.55;32.53;;;;;;2671539;76;20445;-90
2023/04/13 03:04:46;;;;;;;;;;;7.50;32.57;;;;;;2670359;76;20942;-91
2023/04/13 03:08:14;;;;;;;;;;;7.46;32.47;;;;;;2670756;76;20439;-91
2023/04/13 03:11:42;;;;;;;;;;;7.48;32.22;;;;;;2671714;76;20579;-90
2023/04/13 03:15:11;;;;;;;;;;;7.48;32.06;;;;;;2671817;76;20692;-90
2023/04/13 03:18:39;;;;;;;;;;;7.42;32.00;;;;;;2670314;76;20478;-91
2023/04/13 03:22:07;;;;;;;;;;;7.42;31.99;;;;;;2668770;76;20513;-89
2023/04/13 03:25:35;;;;;;;;;;;7.38;31.82;;;;;;2670275;76;20462;-90
2023/04/13 03:29:03;;;;;;;;;;;7.37;31.73;;;;;;2670770;76;20499;-90
2023/04/13 03:32:31;;;;;;;;;;;7.32;31.66;;;;;;2669123;76;20465;-90
2023/04/13 03:35:59;;;;;;;;;;;7.28;31.42;;;;;;2671747;76;20683;-90
2023/04/13 03:39:28;;;;;;;;;;;7.22;31.16;;;;;;2668474;76;20811;-90
2023/04/13 03:42:57;;;;;;;;;;;7.19;30.85;;;;;;2669096;76;20489;-89
2023/04/13 03:46:26;;;;;;;;;;;7.17;30.46;;;;;;2668865;76;20465;-90
2023/04/13 03:49:54;;;;;;;;;;;7.15;29.97;;;;;;2669604;76;20456;-88
2023/04/13 03:53:22;;;;;;;;;;;7.13;29.74;;;;;;2672015;76;20417;-90
2023/04/13 03:56:50;;;;;;;;;;;7.11;29.27;;;;;;2671926;76;20922;-88
2023/04/13 04:00:18;;;;;;;;;;;7.10;29.06;;;;;;2671198;76;20465;-90
2023/04/13 04:03:48;;;;;;;;;;;7.12;29.04;;;;;;2671633;76;20913;-89
2023/04/13 04:07:17;;;;;;;;;;;7.15;28.85;;;;;;2671356;76;20764;-90
2023/04/13 04:10:45;;;;;;;;;;;7.15;28.96;;;;;;2670712;76;20491;-91
2023/04/13 04:14:14;;;;;;;;;;;7.13;29.02;;;;;;2670170;76;20636;-90
2023/04/13 04:17:42;;;;;;;;;;;7.11;29.41;;;;;;2670249;76;20461;-91
2023/04/13 04:21:11;;;;;;;;;;;7.14;29.25;;;;;;2671169;76;20425;-91
2023/04/13 04:24:41;;;;;;;;;;;7.10;29.40;;;;;;2671012;76;20481;-91
2023/04/13 04:28:20;;;;;;;;;;;7.03;29.59;;;;;;2671325;76;20433;-91
2023/04/13 04:31:52;;;;;;;;;;;6.94;29.71;;;;;;2670874;76;20767;-91
2023/04/13 04:35:25;;;;;;;;;;;6.87;29.39;;;;;;2672500;76;20479;-91
2023/04/13 04:38:56;;;;;;;;;;;6.80;29.03;;;;;;2670357;76;20820;-90
2023/04/13 04:42:21;;;;;;;;;;;6.79;29.35;;;;;;2669817;76;20373;-91
2023/04/13 04:45:50;;;;;;;;;;;6.80;29.87;;;;;;2668854;76;20431;-90
2023/04/13 04:49:21;;;;;;;;;;;6.84;29.98;;;;;;2669227;76;20507;-90
2023/04/13 04:52:49;;;;;;;;;;;6.90;29.90;;;;;;2666661;76;20606;-90
2023/04/13 04:56:17;;;;;;;;;;;6.91;30.03;;;;;;2668840;76;20470;-90
2023/04/13 04:59:45;;;;;;;;;;;6.93;30.15;;;;;;2669032;76;20450;-91
2023/04/13 05:03:13;;;;;;;;;;;6.94;29.95;;;;;;2669729;76;20436;-90
2023/04/13 05:06:41;;;;;;;;;;;6.93;30.03;;;;;;2670492;76;20956;-91
2023/04/13 05:10:09;;;;;;;;;;;6.96;29.93;;;;;;2671073;76;20459;-90
2023/04/13 05:13:38;;;;;;;;;;;7.03;29.75;;;;;;2670165;76;20464;-90
2023/04/13 05:17:06;;;;;;;;;;;7.15;29.45;;;;;;2670190;76;20523;-90
2023/04/13 05:20:34;;;;;;;;;;;7.22;28.80;;;;;;2670996;76;20533;-91
2023/04/13 05:24:03;;;;;;;;;;;7.31;29.02;;;;;;2670241;76;20445;-90
2023/04/13 05:27:31;;;;;;;;;;;7.29;29.66;;;;;;2670830;76;20359;-91
2023/04/13 05:30:59;;;;;;;;;;;7.27;29.79;;;;;;2669380;76;20897;-90
2023/04/13 05:34:27;;;;;;;;;;;7.37;30.13;;;;;;2667525;76;20407;-90
2023/04/13 05:37:55;;;;;;;;;;;7.47;30.17;;;;;;2669008;76;20415;-90
2023/04/13 05:41:23;;;;;;;;;;;7.60;29.98;;;;;;2668234;76;20481;-90
2023/04/13 05:44:51;;;;;;;;;;;7.71;29.55;;;;;;2668838;76;20437;-90
2023/04/13 05:48:20;;;;;;;;;;;7.81;28.69;;;;;;2668142;76;20423;-88
2023/04/13 05:51:48;;;;;;;;;;;7.83;27.77;;;;;;2668504;76;20428;-89
2023/04/13 05:55:18;;;;;;;;;;;7.83;26.75;;;;;;2668825;76;20439;-90
2023/04/13 05:58:46;;;;;;;;;;;7.94;26.87;;;;;;2668500;76;21302;-90
2023/04/13 06:02:14;;;;;;;;;;;8.02;26.47;;;;;;2667669;76;20499;-91
2023/04/13 06:05:42;;;;;;;;;;;8.00;25.72;;;;;;2668187;76;20482;-90
2023/04/13 06:09:12;;;;;;;;;;;8.04;25.76;;;;;;2667981;76;20436;-90
2023/04/13 06:12:40;;;;;;;;;;;8.04;25.72;;;;;;2667932;76;20431;-90
2023/04/13 06:16:08;;;;;;;;;;;8.21;25.97;;;;;;2667978;76;20971;-90
2023/04/13 06:19:36;;;;;;;;;;;8.36;25.83;;;;;;2668443;76;20479;-89
2023/04/13 06:23:04;;;;;;;;;;;8.24;24.88;;;;;;2667017;76;20459;-89
2023/04/13 06:26:32;;;;;;;;;;;8.19;24.74;;;;;;2665945;76;20737;-89
2023/04/13 06:30:01;;;;;;;;;;;8.26;25.04;;;;;;2665066;76;21231;-89
2023/04/13 06:33:29;;;;;;;;;;;8.48;25.27;;;;;;2665166;76;20484;-88
2023/04/13 06:36:59;;;;;;;;;;;8.72;24.40;;;;;;2664828;76;20347;-89
2023/04/13 06:40:27;;;;;;;;;;;8.91;24.01;;;;;;2664731;76;20431;-89
2023/04/13 06:43:55;;;;;;;;;;;9.08;23.69;;;;;;2663292;76;20862;-88
2023/04/13 06:47:23;;;;;;;;;;;9.24;23.23;;;;;;2663967;76;20504;-88
2023/04/13 06:50:52;;;;;;;;;;;9.52;22.69;;;;;;2666427;76;20442;-89
2023/04/13 06:54:21;;;;;;;;;;;9.67;21.53;;;;;;2663861;76;20455;-88
2023/04/13 06:57:49;;;;;;;;;;;9.80;21.44;;;;;;2666858;76;20424;-87
2023/04/13 07:01:17;;;;;;;;;;;9.95;20.94;;;;;;2667109;76;20459;-88
2023/04/13 07:04:45;;;;;;;;;;;10.09;20.79;;;;;;2666601;76;20443;-89
2023/04/13 07:08:13;;;;;;;;;;;10.31;21.21;;;;;;2666240;76;22706;-90
2023/04/13 07:11:41;;;;;;;;;;;10.11;18.04;;;;;;2667525;76;20467;-89
2023/04/13 07:15:09;;;;;;;;;;;10.44;19.15;;;;;;2666167;76;20435;-87
2023/04/13 07:18:38;;;;;;;;;;;10.71;17.61;;;;;;2667333;76;20507;-88
2023/04/13 07:22:07;;;;;;;;;;;11.07;17.58;;;;;;2667222;76;20421;-88
2023/04/13 07:25:35;;;;;;;;;;;10.46;13.47;;;;;;2666075;76;21414;-88
2023/04/13 07:29:03;;;;;;;;;;;10.93;14.33;;;;;;2667188;76;21240;-87
2023/04/13 07:32:31;;;;;;;;;;;11.19;13.08;;;;;;2665248;76;20478;-88
2023/04/13 07:36:00;;;;;;;;;;;11.53;12.84;;;;;;2666129;76;20507;-89
2023/04/13 07:39:28;;;;;;;;;;;11.69;11.39;;;;;;2667320;76;20457;-88
2023/04/13 07:42:56;;;;;;;;;;;11.44;8.67;;;;;;2667361;76;20512;-89
2023/04/13 07:46:25;;;;;;;;;;;10.69;4.36;;;;;;2667892;76;20464;-89
2023/04/13 07:49:54;;;;;;;;;;;10.80;4.36;;;;;;2668239;76;21093;-89
2023/04/13 07:53:22;;;;;;;;;;;11.30;4.51;;;;;;2667734;76;20454;-89
2023/04/13 07:56:50;;;;;;;;;;;11.68;4.16;;;;;;2668708;76;20449;-88
2023/04/13 08:00:19;;;;;;;;;;;10.92;0.80;;;;;;2667301;76;20460;-87
2023/04/13 08:03:47;;;;;;;;;;;10.75;0.84;;;;;;2667135;76;21009;-89
2023/04/13 08:07:15;;;;;;;;;;;11.13;1.55;;;;;;2666255;76;20949;-89
2023/04/13 08:10:43;;;;;;;;;;;10.85;0.69;;;;;;2667233;76;20440;-88
2023/04/13 08:14:12;;;;;;;;;;;11.19;1.82;;;;;;2666735;76;20434;-90
2023/04/13 08:17:42;;;;;;;;;;;10.84;0.50;;;;;;2666946;76;20424;-87
2023/04/13 08:21:11;;;;;;;;;;;11.15;1.14;;;;;;2667446;76;20481;-89
2023/04/13 08:24:39;;;;;;;;;;;11.30;0.64;;;;;;2665573;76;20464;-89
2023/04/13 08:28:08;;;;;;;;;;;11.12;0.75;;;;;;2666068;76;20448;-89
2023/04/13 08:31:37;;;;;;;;;;;10.58;-1.24;;;;;;2667130;76;20485;-88
2023/04/13 08:35:08;;;;;;;;;;;9.94;-3.01;;;;;;2667354;76;21215;-88
2023/04/13 08:38:36;;;;;;;;;;;10.45;-0.28;;;;;;2668054;76;20442;-87
2023/04/13 08:42:04;;;;;;;;;;;10.42;-1.96;;;;;;2666922;76;21467;-88
2023/04/13 08:45:33;;;;;;;;;;;10.13;-2.46;;;;;;2664094;76;20676;-88
2023/04/13 08:49:01;;;;;;;;;;;10.27;-2.56;;;;;;2666741;76;20341;-88
2023/04/13 08:52:29;;;;;;;;;;;10.35;-4.44;;;;;;2667470;76;20320;-88
2023/04/13 08:56:02;;;;;;;;;;;10.70;-4.15;;;;;;2666467;76;21483;-88
2023/04/13 08:59:28;;;;;;;;;;;11.24;-4.03;;;;;;2667501;76;20471;-88
2023/04/13 09:02:59;;;;;;;;;;;11.40;-4.68;;;;;;2666345;76;20834;-88
2023/04/13 09:06:26;;;;;;;;;;;11.30;116.19;;;;;;2666304;76;20967;-88
2023/04/13 09:09:54;;;;;;;;;;;11.99;117.73;;;;;;2666726;76;20922;-87
2023/04/13 09:13:23;;;;;;;;;;;12.33;118.73;;;;;;2666884;76;20376;-87
2023/04/13 09:16:51;;;;;;;;;;;12.55;117.11;;;;;;2667783;76;20452;-88
2023/04/13 09:20:22;;;;;;;;;;;12.23;114.89;;;;;;2668239;76;20438;-89
2023/04/13 09:23:50;;;;;;;;;;;12.48;114.33;;;;;;2666421;76;20776;-88
2023/04/13 09:27:19;;;;;;;;;;;12.45;112.69;;;;;;2668157;76;20428;-88
2023/04/13 09:30:47;;;;;;;;;;;12.86;113.36;;;;;;2667511;76;20431;-89
2023/04/13 09:34:15;;;;;;;;;;;13.10;112.40;;;;;;2667936;76;20472;-88
2023/04/13 09:37:44;;;;;;;;;;;13.54;112.64;;;;;;2666707;76;20472;-87
2023/04/13 09:41:12;;;;;;;;;;;12.76;107.61;;;;;;2667518;76;20473;-88
2023/04/13 09:44:45;;;;;;;;;;;13.33;110.39;;;;;;2667518;76;20419;-88
2023/04/13 09:48:11;;;;;;;;;;;12.73;108.28;;;;;;2666128;76;20456;-86
2023/04/13 09:51:39;;;;;;;;;;;13.54;109.17;;;;;;2666439;76;20309;-88
2023/04/13 09:55:08;;;;;;;;;;;14.18;108.83;;;;;;2666524;76;20313;-87
2023/04/13 09:58:36;;;;;;;;;;;14.47;107.08;;;;;;2667327;76;20421;-88
2023/04/13 10:02:04;;;;;;;;;;;14.74;107.35;;;;;;2667614;76;20469;-89
2023/04/13 10:05:33;;;;;;;;;;;14.79;107.86;;;;;;2667032;76;20715;-89
2023/04/13 10:09:04;;;;;;;;;;;14.38;105.65;;;;;;2668213;76;21712;-88
2023/04/13 10:12:35;;;;;;;;;;;13.41;105.16;;;;;;2667836;76;20423;-88
2023/04/13 10:16:03;;;;;;;;;;;14.00;108.01;;;;;;2665988;76;20489;-88
2023/04/13 10:19:33;;;;;;;;;;;13.88;106.72;;;;;;2667535;76;20479;-89
2023/04/13 10:23:02;;;;;;;;;;;13.98;106.05;;;;;;2667013;76;20935;-89
2023/04/13 10:26:30;;;;;;;;;;;13.78;104.14;;;;;;2667199;76;21188;-88
2023/04/13 10:30:09;;;;;;;;;;;13.55;103.97;;;;;;2668707;76;20482;-91
2023/04/13 10:33:35;;;;;;;;;;;13.58;104.24;;;;;;2667755;76;20953;-86
2023/04/13 10:37:06;;;;;;;;;;;12.97;102.71;;;;;;2667684;76;20931;-86
2023/04/13 10:40:36;;;;;;;;;;;13.43;104.21;;;;;;2668241;76;20433;-85
2023/04/13 10:44:06;;;;;;;;;;;13.93;105.59;;;;;;2667439;76;20434;-86
2023/04/13 10:47:37;;;;;;;;;;;14.27;105.11;;;;;;2667402;76;20499;-86
2023/04/13 10:51:05;;;;;;;;;;;14.09;102.63;;;;;;2667319;76;20512;-87
2023/04/13 10:54:36;;;;;;;;;;;13.79;102.22;;;;;;2668055;76;20969;-87
2023/04/13 10:58:06;;;;;;;;;;;13.98;103.76;;;;;;2666763;76;20463;-87
2023/04/13 11:01:39;;;;;;;;;;;14.39;104.68;;;;;;2667019;76;20329;-87
2023/04/13 11:05:07;;;;;;;;;;;14.23;103.38;;;;;;2667292;76;20355;-90
2023/04/13 11:08:38;;;;;;;;;;;14.08;103.81;;;;;;2667383;76;20457;-91
2023/04/13 11:12:07;;;;;;;;;;;14.87;105.60;;;;;;2667673;76;20938;-88
2023/04/13 11:15:36;;;;;;;;;;;13.73;102.86;;;;;;2667676;76;21064;-87
2023/04/13 11:19:04;;;;;;;;;;;13.30;104.23;;;;;;2667634;76;20420;-89
2023/04/13 11:22:32;;;;;;;;;;;12.82;104.67;;;;;;2667244;76;20871;-87
2023/04/13 11:26:04;;;;;;;;;;;12.56;105.60;;;;;;2666937;76;20346;-89
2023/04/13 11:29:32;;;;;;;;;;;12.56;106.38;;;;;;2667153;76;20438;-86
2023/04/13 11:33:03;;;;;;;;;;;12.30;106.86;;;;;;2665938;76;20475;-86
2023/04/13 11:36:32;;;;;;;;;;;12.42;107.04;;;;;;2666591;76;20489;-86
2023/04/13 11:40:09;;;;;;;;;;;12.66;107.58;;;;;;2666171;76;20467;-86
2023/04/13 11:43:37;;;;;;;;;;;12.93;108.36;;;;;;2668226;76;20443;-87
2023/04/13 11:47:10;;;;;;;;;;;13.30;110.37;;;;;;2666425;76;20868;-87
2023/04/13 11:50:37;;;;;;;;;;;13.38;110.65;;;;;;2666416;76;21029;-90
2023/04/13 11:54:12;;;;;;;;;;;12.95;109.49;;;;;;2667473;76;21184;-89
2023/04/13 11:57:41;;;;;;;;;;;12.81;108.32;;;;;;2666909;76;20497;-89
2023/04/13 12:01:13;;;;;;;;;;;12.97;109.26;;;;;;2667386;76;20476;-87
2023/04/13 12:04:39;;;;;;;;;;;13.56;113.08;;;;;;2667906;76;20462;-90
2023/04/13 12:08:08;;;;;;;;;;;13.31;109.53;;;;;;2667534;76;20449;-89
2023/04/13 12:11:39;;;;;;;;;;;12.74;107.84;;;;;;2668617;76;20482;-92
2023/04/13 12:15:07;;;;;;;;;;;13.04;107.83;;;;;;2668957;76;20912;-91
2023/04/13 12:18:35;;;;;;;;;;;13.33;108.92;;;;;;2670311;76;20442;-90
2023/04/13 12:22:03;;;;;;;;;;;12.88;107.83;;;;;;2670787;76;21183;-90
2023/04/13 12:25:32;;;;;;;;;;;12.99;108.52;;;;;;2670390;76;20460;-90
2023/04/13 12:29:00;;;;;;;;;;;12.88;108.59;;;;;;2667344;76;20954;-90
2023/04/13 12:32:29;;;;;;;;;;;12.51;107.01;;;;;;2667342;76;20491;-90
2023/04/13 12:35:57;;;;;;;;;;;12.05;106.84;;;;;;2670481;76;20479;-89
2023/04/13 12:39:31;;;;;;;;;;;11.76;106.96;;;;;;2669945;76;20444;-90
2023/04/13 12:42:55;;;;;;;;;;;11.87;108.74;;;;;;2669814;76;20452;-90
2023/04/13 12:46:25;;;;;;;;;;;11.67;109.11;;;;;;2669273;76;20434;-90
2023/04/13 12:49:55;;;;;;;;;;;11.49;109.70;;;;;;2669948;76;20698;-90
2023/04/13 12:53:23;;;;;;;;;;;11.37;110.17;;;;;;2671154;76;20422;-90
2023/04/13 12:56:51;;;;;;;;;;;11.39;111.03;;;;;;2669890;76;20974;-90
2023/04/13 13:00:22;;;;;;;;;;;11.69;111.92;;;;;;2670687;76;20434;-90
2023/04/13 13:03:49;;;;;;;;;;;11.94;111.89;;;;;;2669621;76;20335;-91
2023/04/13 13:07:17;;;;;;;;;;;11.87;111.78;;;;;;2670843;76;20318;-91
2023/04/13 13:10:45;;;;;;;;;;;11.78;110.89;;;;;;2670516;76;20456;-89
2023/04/13 13:14:13;;;;;;;;;;;11.45;110.55;;;;;;2670884;76;20424;-90
2023/04/13 13:17:41;;;;;;;;;;;11.61;111.70;;;;;;2671914;76;20858;-89
2023/04/13 13:21:10;;;;;;;;;;;11.81;113.77;;;;;;2669947;76;20435;-90
2023/04/13 13:24:38;;;;;;;;;;;11.78;115.42;;;;;;2671296;76;20329;-90
2023/04/13 13:28:07;;;;;;;;;;;11.16;113.98;;;;;;2669379;76;21101;-90
2023/04/13 13:31:36;;;;;;;;;;;10.87;114.76;;;;;;2672133;76;20459;-90
2023/04/13 13:35:04;;;;;;;;;;;11.13;116.71;;;;;;2671248;76;20428;-90
2023/04/13 13:38:32;;;;;;;;;;;11.17;116.86;;;;;;2670376;76;20465;-89
2023/04/13 13:42:02;;;;;;;;;;;11.29;117.63;;;;;;2671488;76;20919;-90
2023/04/13 13:45:30;;;;;;;;;;;11.31;115.99;;;;;;2671365;76;20465;-89
2023/04/13 13:48:58;;;;;;;;;;;11.73;117.15;;;;;;2671600;76;20464;-90
2023/04/13 13:52:26;;;;;;;;;;;12.18;117.44;;;;;;2671333;76;20467;-90
2023/04/13 13:55:55;;;;;;;;;;;12.42;116.89;;;;;;2672600;76;20418;-89
2023/04/13 13:59:23;;;;;;;;;;;12.21;114.00;;;;;;2670090;76;20444;-89
2023/04/13 14:02:51;;;;;;;;;;;12.76;113.92;;;;;;2671258;76;20434;-90
2023/04/13 14:06:19;;;;;;;;;;;12.50;111.20;;;;;;2671279;76;20427;-89
2023/04/13 14:09:47;;;;;;;;;;;12.88;112.39;;;;;;2670864;76;20923;-89
2023/04/13 14:13:15;;;;;;;;;;;13.19;113.98;;;;;;2671471;76;20480;-89
2023/04/13 14:16:43;;;;;;;;;;;13.27;110.74;;;;;;2672540;76;20741;-90
2023/04/13 14:20:12;;;;;;;;;;;13.10;107.12;;;;;;2671278;76;20461;-89
2023/04/13 14:23:40;;;;;;;;;;;13.47;108.86;;;;;;2671090;76;20301;-90
2023/04/13 14:27:09;;;;;;;;;;;12.95;105.77;;;;;;2671600;76;20324;-90
2023/04/13 14:30:37;;;;;;;;;;;13.38;107.43;;;;;;2672050;76;20795;-89
2023/04/13 14:34:05;;;;;;;;;;;14.19;111.36;;;;;;2671718;76;20357;-89
2023/04/13 14:37:46;;;;;;;;;;;;;;;;;;;;;
2023/04/13 14:41:06;;;;;;;;;;;13.92;111.56;;;;;;2671941;76;20460;-89
2023/04/13 14:44:40;;;;;;;;;;;12.50;105.97;;;;;;2672229;76;20472;-90
2023/04/13 14:48:04;;;;;;;;;;;11.63;107.61;;;;;;2671505;76;20377;-89
2023/04/13 14:51:33;;;;;;;;;;;11.90;111.00;;;;;;2672742;76;20451;-88
2023/04/13 14:55:01;;;;;;;;;;;11.88;111.69;;;;;;2671982;76;20819;-89
2023/04/13 14:58:29;;;;;;;;;;;11.77;111.87;;;;;;2672491;76;20909;-89
2023/04/13 15:01:58;;;;;;;;;;;12.21;112.84;;;;;;2672377;76;20440;-90
2023/04/13 15:05:27;;;;;;;;;;;12.11;111.36;;;;;;2671428;76;20465;-90
2023/04/13 15:08:56;;;;;;;;;;;12.30;112.73;;;;;;2671941;76;20427;-90
2023/04/13 15:12:24;;;;;;;;;;;12.13;111.06;;;;;;2671733;76;20913;-89
2023/04/13 15:15:55;;;;;;;;;;;12.15;110.83;;;;;;2671621;76;20422;-90
2023/04/13 15:19:23;;;;;;;;;;;11.66;110.13;;;;;;2671689;76;20439;-90
2023/04/13 15:22:51;;;;;;;;;;;11.51;111.08;;;;;;2671980;76;20656;-90
2023/04/13 15:26:20;;;;;;;;;;;11.39;112.22;;;;;;2671201;76;20420;-90
2023/04/13 15:29:48;;;;;;;;;;;12.06;113.22;;;;;;2672276;76;20455;-91
2023/04/13 15:33:16;;;;;;;;;;;12.56;113.22;;;;;;2672366;76;20483;-90
2023/04/13 15:36:44;;;;;;;;;;;12.99;114.77;;;;;;2672266;76;20452;-90
2023/04/13 15:40:13;;;;;;;;;;;13.27;117.30;;;;;;2671833;76;20436;-90
2023/04/13 15:43:42;;;;;;;;;;;13.15;118.76;;;;;;2672142;76;20436;-90
2023/04/13 15:47:10;;;;;;;;;;;11.90;113.61;;;;;;2672350;76;20454;-90
2023/04/13 15:50:38;;;;;;;;;;;11.56;112.92;;;;;;2672184;76;20425;-90
2023/04/13 15:54:07;;;;;;;;;;;11.57;114.45;;;;;;2672142;76;20447;-89
2023/04/13 15:57:35;;;;;;;;;;;11.34;114.47;;;;;;2670139;76;20422;-90
2023/04/13 16:01:03;;;;;;;;;;;10.83;112.83;;;;;;2668213;76;20450;-90
2023/04/13 16:04:31;;;;;;;;;;;10.71;113.19;;;;;;2669215;76;20449;-90
2023/04/13 16:08:00;;;;;;;;;;;10.74;113.76;;;;;;2670828;76;20435;-90
2023/04/13 16:11:28;;;;;;;;;;;10.73;113.89;;;;;;2670865;76;20430;-90
2023/04/13 16:14:58;;;;;;;;;;;10.75;114.40;;;;;;2670756;76;20414;-90
2023/04/13 16:18:31;;;;;;;;;;;10.60;113.64;;;;;;2671573;76;20892;-89
2023/04/13 16:21:56;;;;;;;;;;;10.58;113.92;;;;;;2671578;76;20991;-90
2023/04/13 16:25:24;;;;;;;;;;;10.89;116.30;;;;;;2671431;76;20975;-90
2023/04/13 16:28:53;;;;;;;;;;;10.96;117.21;;;;;;2671167;76;20442;-90
2023/04/13 16:32:21;;;;;;;;;;;11.03;118.80;;;;;;2672135;76;20404;-90
2023/04/13 16:35:49;;;;;;;;;;;10.97;-5.82;;;;;;2671075;76;20538;-89
2023/04/13 16:39:17;;;;;;;;;;;10.74;118.31;;;;;;2670126;76;20457;-89
2023/04/13 16:42:45;;;;;;;;;;;10.72;-4.32;;;;;;2670322;76;20412;-90
2023/04/13 16:46:16;;;;;;;;;;;10.05;117.68;;;;;;2672198;76;20416;-90
2023/04/13 16:49:44;;;;;;;;;;;10.05;118.50;;;;;;2670949;76;20442;-90
2023/04/13 16:53:12;;;;;;;;;;;10.18;-4.61;;;;;;2671474;76;20450;-89
2023/04/13 16:56:40;;;;;;;;;;;10.11;-3.77;;;;;;2672147;76;20411;-91
2023/04/13 17:00:09;;;;;;;;;;;10.07;-3.07;;;;;;2670350;76;21015;-90
2023/04/13 17:03:40;;;;;;;;;;;10.00;-2.72;;;;;;2667864;76;20448;-90
2023/04/13 17:07:07;;;;;;;;;;;10.06;-1.35;;;;;;2667906;76;20451;-89
2023/04/13 17:10:35;;;;;;;;;;;9.97;-1.08;;;;;;2668404;76;20450;-90
2023/04/13 17:14:03;;;;;;;;;;;9.90;-0.36;;;;;;2668939;76;20443;-89
2023/04/13 17:17:32;;;;;;;;;;;9.90;0.39;;;;;;2670308;76;20429;-91
2023/04/13 17:21:00;;;;;;;;;;;9.92;1.14;;;;;;2669351;76;20428;-90
2023/04/13 17:24:28;;;;;;;;;;;9.90;1.56;;;;;;2669634;76;20445;-89
2023/04/13 17:27:56;;;;;;;;;;;9.84;2.13;;;;;;2669433;76;20441;-90
2023/04/13 17:31:24;;;;;;;;;;;9.74;2.59;;;;;;2670785;76;20428;-91
2023/04/13 17:34:52;;;;;;;;;;;9.60;2.52;;;;;;2669537;76;20885;-91
2023/04/13 17:38:20;;;;;;;;;;;9.49;2.58;;;;;;2670378;76;20438;-90
2023/04/13 17:41:48;;;;;;;;;;;9.38;2.71;;;;;;2670443;76;20499;-89
2023/04/13 17:45:17;;;;;;;;;;;9.30;3.53;;;;;;2669959;76;20502;-90
2023/04/13 17:48:45;;;;;;;;;;;9.15;3.27;;;;;;2669557;76;20407;-91
2023/04/13 17:52:13;;;;;;;;;;;9.05;3.96;;;;;;2669615;76;20472;-90
2023/04/13 17:55:47;;;;;;;;;;;8.73;3.01;;;;;;2670605;76;20435;-91
2023/04/13 17:59:12;;;;;;;;;;;8.74;3.80;;;;;;2670682;76;20432;-93
2023/04/13 18:02:40;;;;;;;;;;;8.63;3.45;;;;;;2669758;76;20978;-91
2023/04/13 18:06:09;;;;;;;;;;;8.72;4.43;;;;;;2671532;76;20405;-91
2023/04/13 18:09:37;;;;;;;;;;;8.76;4.83;;;;;;2669449;76;20312;-89
2023/04/13 18:13:05;;;;;;;;;;;8.73;5.11;;;;;;2670058;76;20418;-90
2023/04/13 18:16:33;;;;;;;;;;;8.68;5.31;;;;;;2671145;76;20316;-92
2023/04/13 18:20:04;;;;;;;;;;;8.59;5.67;;;;;;2670350;76;20437;-89
2023/04/13 18:23:32;;;;;;;;;;;8.48;5.92;;;;;;2670115;76;20486;-88
2023/04/13 18:27:00;;;;;;;;;;;8.38;5.81;;;;;;2670085;76;20429;-90
2023/04/13 18:30:28;;;;;;;;;;;8.36;6.27;;;;;;2670410;76;20428;-91
2023/04/13 18:33:56;;;;;;;;;;;8.35;6.32;;;;;;2670536;76;20434;-92
2023/04/13 18:37:25;;;;;;;;;;;8.41;6.69;;;;;;2670047;76;20440;-92
2023/04/13 18:40:53;;;;;;;;;;;8.42;7.05;;;;;;2669313;76;21114;-89
2023/04/13 18:44:21;;;;;;;;;;;8.45;7.21;;;;;;2669564;76;20507;-88
2023/04/13 18:47:49;;;;;;;;;;;8.46;7.35;;;;;;2669456;76;21000;-90
2023/04/13 18:51:17;;;;;;;;;;;8.46;7.73;;;;;;2669620;76;20309;-89
2023/04/13 18:54:45;;;;;;;;;;;8.37;7.99;;;;;;2669942;76;20481;-89
2023/04/13 18:58:13;;;;;;;;;;;8.29;8.37;;;;;;2669717;76;20390;-90
2023/04/13 19:01:41;;;;;;;;;;;8.26;8.64;;;;;;2670107;76;20403;-89
2023/04/13 19:05:10;;;;;;;;;;;8.15;8.86;;;;;;2669955;76;20462;-90
2023/04/13 19:08:38;;;;;;;;;;;8.12;9.13;;;;;;2670545;76;20458;-89
2023/04/13 19:12:06;;;;;;;;;;;8.09;9.27;;;;;;2670713;76;20345;-90
2023/04/13 19:15:34;;;;;;;;;;;8.12;9.50;;;;;;2670217;76;20337;-89
2023/04/13 19:19:02;;;;;;;;;;;8.14;9.58;;;;;;2669742;76;20459;-89
2023/04/13 19:22:30;;;;;;;;;;;8.16;9.69;;;;;;2670226;76;20596;-89
2023/04/13 19:25:59;;;;;;;;;;;8.07;9.85;;;;;;2670700;76;21024;-90
2023/04/13 19:29:29;;;;;;;;;;;8.06;10.12;;;;;;2669161;76;20935;-89
2023/04/13 19:32:57;;;;;;;;;;;8.02;10.40;;;;;;2670039;76;20457;-89
2023/04/13 19:36:27;;;;;;;;;;;8.01;10.65;;;;;;2670537;76;20476;-89
2023/04/13 19:39:55;;;;;;;;;;;8.03;10.87;;;;;;2669975;76;20464;-89
2023/04/13 19:43:24;;;;;;;;;;;7.99;11.01;;;;;;2668426;76;20486;-89
2023/04/13 19:46:52;;;;;;;;;;;8.03;11.16;;;;;;2669805;76;20424;-89
2023/04/13 19:50:21;;;;;;;;;;;8.02;11.34;;;;;;2670518;76;20448;-89
2023/04/13 19:53:49;;;;;;;;;;;8.02;11.57;;;;;;2670137;76;20904;-89
2023/04/13 19:57:17;;;;;;;;;;;8.00;11.72;;;;;;2668797;76;20486;-90
2023/04/13 20:00:46;;;;;;;;;;;8.00;11.79;;;;;;2668823;76;20875;-90
2023/04/13 20:04:14;;;;;;;;;;;7.93;11.97;;;;;;2670328;76;20439;-90
2023/04/13 20:07:42;;;;;;;;;;;7.91;12.11;;;;;;2670976;76;20421;-89
2023/04/13 20:11:10;;;;;;;;;;;7.87;12.32;;;;;;2670629;76;20467;-89
2023/04/13 20:14:40;;;;;;;;;;;7.84;12.58;;;;;;2670748;76;20583;-90
2023/04/13 20:18:10;;;;;;;;;;;7.82;12.73;;;;;;2670747;76;20479;-90